sensor_id;sensor_type;location;lat;lon;timestamp;temperature;humidity
5196;DHT22;2617;51.006;12.436;2023-05-29T00:04:22;9.20;99.90
5196;DHT22;2617;51.006;12.436;2023-05-29T00:09:24;9.30;99.90
5196;DHT22;2617;51.006;12.436;2023-05-29T00:14:26;9.30;99.90
5196;DHT22;2617;51.006;12.436;2023-05-29T00:19:29;9.20;99.90
5196;DHT22;2617;51.006;12.436;2023-05-29T00:24:31;9.10;99.90
5196;DHT22;2617;51.006;12.436;2023-05-29T00:29:34;9.00;99.90
5196;DHT22;2617;51.006;12.436;2023-05-29T00:34:36;9.00;99.90
5196;DHT22;2617;51.006;12.436;2023-05-29T00:39:38;8.90;99.90
5196;DHT22;2617;51.006;12.436;2023-05-29T00:44:41;8.90;99.90
5196;DHT22;2617;51.006;12.436;2023-05-29T00:49:43;8.80;99.90
5196;DHT22;2617;51.006;12.436;2023-05-29T00:54:46;8.70;99.90
5196;DHT22;2617;51.006;12.436;2023-05-29T00:59:48;8.60;99.90
5196;DHT22;2617;51.006;12.436;2023-05-29T01:04:51;8.50;99.90
5196;DHT22;2617;51.006;12.436;2023-05-29T01:09:53;8.40;99.90
5196;DHT22;2617;51.006;12.436;2023-05-29T01:15:14;8.30;99.90
5196;DHT22;2617;51.006;12.436;2023-05-29T01:20:27;8.20;99.90
5196;DHT22;2617;51.006;12.436;2023-05-29T01:25:46;8.10;99.90
5196;DHT22;2617;51.006;12.436;2023-05-29T01:30:53;8.10;99.90
5196;DHT22;2617;51.006;12.436;2023-05-29T01:35:55;8.00;99.90
5196;DHT22;2617;51.006;12.436;2023-05-29T01:40:58;8.00;99.90
5196;DHT22;2617;51.006;12.436;2023-05-29T01:46:00;8.10;99.90
5196;DHT22;2617;51.006;12.436;2023-05-29T01:51:03;8.00;99.90
5196;DHT22;2617;51.006;12.436;2023-05-29T01:56:06;8.00;99.90
5196;DHT22;2617;51.006;12.436;2023-05-29T02:01:09;8.00;99.90
5196;DHT22;2617;51.006;12.436;2023-05-29T02:06:10;7.90;99.90
5196;DHT22;2617;51.006;12.436;2023-05-29T02:11:13;7.80;99.90
5196;DHT22;2617;51.006;12.436;2023-05-29T02:16:15;7.70;99.90
5196;DHT22;2617;51.006;12.436;2023-05-29T02:21:18;7.70;99.90
5196;DHT22;2617;51.006;12.436;2023-05-29T02:26:20;7.60;99.90
5196;DHT22;2617;51.006;12.436;2023-05-29T02:31:24;7.60;99.90
5196;DHT22;2617;51.006;12.436;2023-05-29T02:36:26;7.50;99.90
5196;DHT22;2617;51.006;12.436;2023-05-29T02:41:29;7.50;99.90
5196;DHT22;2617;51.006;12.436;2023-05-29T02:46:31;7.50;99.90
5196;DHT22;2617;51.006;12.436;2023-05-29T02:51:33;7.50;99.90
5196;DHT22;2617;51.006;12.436;2023-05-29T02:56:36;7.40;99.90
5196;DHT22;2617;51.006;12.436;2023-05-29T03:01:38;7.30;99.90
5196;DHT22;2617;51.006;12.436;2023-05-29T03:06:41;7.30;99.90
5196;DHT22;2617;51.006;12.436;2023-05-29T03:11:43;7.30;99.90
5196;DHT22;2617;51.006;12.436;2023-05-29T03:16:45;7.30;99.90
5196;DHT22;2617;51.006;12.436;2023-05-29T03:21:48;7.40;99.90
5196;DHT22;2617;51.006;12.436;2023-05-29T03:26:51;7.90;99.90
5196;DHT22;2617;51.006;12.436;2023-05-29T03:31:56;8.50;99.90
5196;DHT22;2617;51.006;12.436;2023-05-29T03:36:58;8.40;99.90
5196;DHT22;2617;51.006;12.436;2023-05-29T03:42:00;9.80;99.90
5196;DHT22;2617;51.006;12.436;2023-05-29T03:47:03;10.90;99.90
5196;DHT22;2617;51.006;12.436;2023-05-29T03:52:05;12.00;99.90
5196;DHT22;2617;51.006;12.436;2023-05-29T03:57:08;13.40;99.90
5196;DHT22;2617;51.006;12.436;2023-05-29T04:02:10;15.00;99.90
5196;DHT22;2617;51.006;12.436;2023-05-29T04:07:13;16.40;97.60
5196;DHT22;2617;51.006;12.436;2023-05-29T04:12:15;17.70;94.70
5196;DHT22;2617;51.006;12.436;2023-05-29T04:17:18;18.90;90.80
5196;DHT22;2617;51.006;12.436;2023-05-29T04:22:20;20.00;85.60
5196;DHT22;2617;51.006;12.436;2023-05-29T04:27:22;20.50;81.20
5196;DHT22;2617;51.006;12.436;2023-05-29T04:32:27;21.30;79.10
5196;DHT22;2617;51.006;12.436;2023-05-29T04:37:29;21.20;79.00
5196;DHT22;2617;51.006;12.436;2023-05-29T04:42:32;22.30;75.80
5196;DHT22;2617;51.006;12.436;2023-05-29T04:47:34;23.00;70.80
5196;DHT22;2617;51.006;12.436;2023-05-29T04:52:37;23.10;70.80
5196;DHT22;2617;51.006;12.436;2023-05-29T04:57:40;23.50;68.60
5196;DHT22;2617;51.006;12.436;2023-05-29T05:02:43;23.40;68.40
5196;DHT22;2617;51.006;12.436;2023-05-29T05:07:46;23.20;68.90
5196;DHT22;2617;51.006;12.436;2023-05-29T05:12:48;23.20;68.90
5196;DHT22;2617;51.006;12.436;2023-05-29T05:17:51;22.80;69.90
5196;DHT22;2617;51.006;12.436;2023-05-29T05:22:53;22.30;72.10
5196;DHT22;2617;51.006;12.436;2023-05-29T05:27:56;21.50;74.30
5196;DHT22;2617;51.006;12.436;2023-05-29T05:32:59;20.20;78.70
5196;DHT22;2617;51.006;12.436;2023-05-29T05:38:01;18.90;83.60
5196;DHT22;2617;51.006;12.436;2023-05-29T05:43:04;16.90;91.10
5196;DHT22;2617;51.006;12.436;2023-05-29T05:48:06;16.10;95.20
5196;DHT22;2617;51.006;12.436;2023-05-29T05:53:08;15.60;97.40
5196;DHT22;2617;51.006;12.436;2023-05-29T05:58:11;15.30;99.00
5196;DHT22;2617;51.006;12.436;2023-05-29T06:03:13;15.20;99.90
5196;DHT22;2617;51.006;12.436;2023-05-29T06:08:16;14.70;99.90
5196;DHT22;2617;51.006;12.436;2023-05-29T06:13:18;14.50;99.90
5196;DHT22;2617;51.006;12.436;2023-05-29T06:18:21;14.80;99.90
5196;DHT22;2617;51.006;12.436;2023-05-29T06:23:23;14.70;99.90
5196;DHT22;2617;51.006;12.436;2023-05-29T06:28:26;15.10;99.90
5196;DHT22;2617;51.006;12.436;2023-05-29T06:33:29;15.10;99.90
5196;DHT22;2617;51.006;12.436;2023-05-29T06:38:32;14.70;99.90
5196;DHT22;2617;51.006;12.436;2023-05-29T06:43:34;14.70;99.90
5196;DHT22;2617;51.006;12.436;2023-05-29T06:48:37;15.10;99.90
5196;DHT22;2617;51.006;12.436;2023-05-29T06:53:39;15.10;99.90
5196;DHT22;2617;51.006;12.436;2023-05-29T06:58:42;15.10;99.90
5196;DHT22;2617;51.006;12.436;2023-05-29T07:03:46;15.60;99.90
5196;DHT22;2617;51.006;12.436;2023-05-29T07:08:48;16.20;99.90
5196;DHT22;2617;51.006;12.436;2023-05-29T07:13:51;16.20;99.90
5196;DHT22;2617;51.006;12.436;2023-05-29T07:18:53;16.80;99.60
5196;DHT22;2617;51.006;12.436;2023-05-29T07:23:55;17.40;98.50
5196;DHT22;2617;51.006;12.436;2023-05-29T07:28:58;17.70;97.40
5196;DHT22;2617;51.006;12.436;2023-05-29T07:34:00;17.80;97.50
5196;DHT22;2617;51.006;12.436;2023-05-29T07:39:04;18.30;96.00
5196;DHT22;2617;51.006;12.436;2023-05-29T07:44:06;18.30;96.00
5196;DHT22;2617;51.006;12.436;2023-05-29T07:49:08;18.50;95.40
5196;DHT22;2617;51.006;12.436;2023-05-29T07:54:11;18.50;94.80
5196;DHT22;2617;51.006;12.436;2023-05-29T07:59:13;18.60;94.30
5196;DHT22;2617;51.006;12.436;2023-05-29T08:04:17;18.70;93.60
5196;DHT22;2617;51.006;12.436;2023-05-29T08:09:20;18.70;93.60
5196;DHT22;2617;51.006;12.436;2023-05-29T08:14:22;18.80;93.50
5196;DHT22;2617;51.006;12.436;2023-05-29T08:19:25;18.80;93.40
5196;DHT22;2617;51.006;12.436;2023-05-29T08:24:27;18.30;94.80
5196;DHT22;2617;51.006;12.436;2023-05-29T08:29:30;18.40;94.40
5196;DHT22;2617;51.006;12.436;2023-05-29T08:34:34;18.30;93.70
5196;DHT22;2617;51.006;12.436;2023-05-29T08:39:37;18.30;92.90
5196;DHT22;2617;51.006;12.436;2023-05-29T08:44:39;18.10;91.40
5196;DHT22;2617;51.006;12.436;2023-05-29T08:49:42;18.50;91.80
5196;DHT22;2617;51.006;12.436;2023-05-29T08:54:44;18.40;90.80
5196;DHT22;2617;51.006;12.436;2023-05-29T08:59:47;18.40;90.50
5196;DHT22;2617;51.006;12.436;2023-05-29T09:04:50;18.50;91.40
5196;DHT22;2617;51.006;12.436;2023-05-29T09:09:53;18.60;91.80
5196;DHT22;2617;51.006;12.436;2023-05-29T09:14:56;18.60;91.80
5196;DHT22;2617;51.006;12.436;2023-05-29T09:20:00;19.00;91.00
5196;DHT22;2617;51.006;12.436;2023-05-29T09:25:03;19.00;91.00
5196;DHT22;2617;51.006;12.436;2023-05-29T09:30:06;19.10;91.20
5196;DHT22;2617;51.006;12.436;2023-05-29T09:35:10;19.50;90.20
5196;DHT22;2617;51.006;12.436;2023-05-29T09:40:12;19.80;90.30
5196;DHT22;2617;51.006;12.436;2023-05-29T09:45:17;19.90;90.80
5196;DHT22;2617;51.006;12.436;2023-05-29T09:50:20;19.90;90.20
5196;DHT22;2617;51.006;12.436;2023-05-29T09:55:24;20.10;87.20
5196;DHT22;2617;51.006;12.436;2023-05-29T10:00:26;20.90;87.20
5196;DHT22;2617;51.006;12.436;2023-05-29T10:05:29;20.70;87.70
5196;DHT22;2617;51.006;12.436;2023-05-29T10:10:36;20.70;87.80
5196;DHT22;2617;51.006;12.436;2023-05-29T10:15:41;20.70;87.90
5196;DHT22;2617;51.006;12.436;2023-05-29T10:20:43;20.50;87.00
5196;DHT22;2617;51.006;12.436;2023-05-29T10:25:46;20.70;80.40
5196;DHT22;2617;51.006;12.436;2023-05-29T10:31:00;20.70;80.30
5196;DHT22;2617;51.006;12.436;2023-05-29T10:41:31;21.70;81.10
5196;DHT22;2617;51.006;12.436;2023-05-29T10:52:03;21.60;79.10
5196;DHT22;2617;51.006;12.436;2023-05-29T10:57:07;22.30;79.00
5196;DHT22;2617;51.006;12.436;2023-05-29T11:02:09;23.10;77.00
5196;DHT22;2617;51.006;12.436;2023-05-29T11:12:31;22.60;75.20
5196;DHT22;2617;51.006;12.436;2023-05-29T11:17:44;22.40;76.00
5196;DHT22;2617;51.006;12.436;2023-05-29T11:23:01;21.90;74.10
5196;DHT22;2617;51.006;12.436;2023-05-29T11:28:04;22.60;66.80
5196;DHT22;2617;51.006;12.436;2023-05-29T11:33:06;22.50;66.70
5196;DHT22;2617;51.006;12.436;2023-05-29T11:38:10;22.40;66.40
5196;DHT22;2617;51.006;12.436;2023-05-29T11:43:13;22.30;66.30
5196;DHT22;2617;51.006;12.436;2023-05-29T11:48:15;23.30;66.00
5196;DHT22;2617;51.006;12.436;2023-05-29T11:53:18;24.00;60.70
5196;DHT22;2617;51.006;12.436;2023-05-29T11:58:21;22.40;66.20
5196;DHT22;2617;51.006;12.436;2023-05-29T12:03:23;22.40;66.20
5196;DHT22;2617;51.006;12.436;2023-05-29T12:08:26;23.20;64.20
5196;DHT22;2617;51.006;12.436;2023-05-29T12:13:29;23.20;64.10
5196;DHT22;2617;51.006;12.436;2023-05-29T12:18:32;23.20;62.50
5196;DHT22;2617;51.006;12.436;2023-05-29T12:23:36;23.70;60.20
5196;DHT22;2617;51.006;12.436;2023-05-29T12:28:42;23.70;60.20
5196;DHT22;2617;51.006;12.436;2023-05-29T12:33:44;23.80;59.50
5196;DHT22;2617;51.006;12.436;2023-05-29T12:38:50;23.80;61.20
5196;DHT22;2617;51.006;12.436;2023-05-29T12:43:53;23.80;59.70
5196;DHT22;2617;51.006;12.436;2023-05-29T12:48:55;23.40;59.50
5196;DHT22;2617;51.006;12.436;2023-05-29T12:53:57;23.00;60.30
5196;DHT22;2617;51.006;12.436;2023-05-29T12:59:01;23.50;58.70
5196;DHT22;2617;51.006;12.436;2023-05-29T13:04:04;23.50;59.80
5196;DHT22;2617;51.006;12.436;2023-05-29T13:09:06;24.60;59.10
5196;DHT22;2617;51.006;12.436;2023-05-29T13:14:08;24.60;59.10
5196;DHT22;2617;51.006;12.436;2023-05-29T13:19:11;24.40;58.50
5196;DHT22;2617;51.006;12.436;2023-05-29T13:24:13;22.80;63.40
5196;DHT22;2617;51.006;12.436;2023-05-29T13:29:15;22.30;64.10
5196;DHT22;2617;51.006;12.436;2023-05-29T13:34:18;22.10;65.60
5196;DHT22;2617;51.006;12.436;2023-05-29T13:39:20;22.10;67.20
5196;DHT22;2617;51.006;12.436;2023-05-29T13:44:23;21.80;65.50
5196;DHT22;2617;51.006;12.436;2023-05-29T13:49:26;21.70;65.40
5196;DHT22;2617;51.006;12.436;2023-05-29T13:54:29;22.60;62.30
5196;DHT22;2617;51.006;12.436;2023-05-29T13:59:33;23.30;61.60
5196;DHT22;2617;51.006;12.436;2023-05-29T14:04:35;23.30;61.60
5196;DHT22;2617;51.006;12.436;2023-05-29T14:09:38;23.40;60.80
5196;DHT22;2617;51.006;12.436;2023-05-29T14:14:41;23.40;60.80
5196;DHT22;2617;51.006;12.436;2023-05-29T14:19:43;22.70;60.80
5196;DHT22;2617;51.006;12.436;2023-05-29T14:24:46;22.80;63.00
5196;DHT22;2617;51.006;12.436;2023-05-29T14:29:49;23.80;60.40
5196;DHT22;2617;51.006;12.436;2023-05-29T14:34:51;23.80;60.40
5196;DHT22;2617;51.006;12.436;2023-05-29T14:39:54;23.50;60.50
5196;DHT22;2617;51.006;12.436;2023-05-29T14:44:56;22.80;61.40
5196;DHT22;2617;51.006;12.436;2023-05-29T14:49:59;23.00;59.50
5196;DHT22;2617;51.006;12.436;2023-05-29T14:55:02;23.70;60.60
5196;DHT22;2617;51.006;12.436;2023-05-29T15:00:06;23.70;60.60
5196;DHT22;2617;51.006;12.436;2023-05-29T15:05:09;23.60;59.90
5196;DHT22;2617;51.006;12.436;2023-05-29T15:10:11;23.20;62.30
5196;DHT22;2617;51.006;12.436;2023-05-29T15:15:13;22.40;64.00
5196;DHT22;2617;51.006;12.436;2023-05-29T15:20:16;22.20;64.00
5196;DHT22;2617;51.006;12.436;2023-05-29T15:25:19;22.50;62.30
5196;DHT22;2617;51.006;12.436;2023-05-29T15:30:22;22.60;61.70
5196;DHT22;2617;51.006;12.436;2023-05-29T15:35:24;22.50;61.50
5196;DHT22;2617;51.006;12.436;2023-05-29T15:40:27;22.40;61.90
5196;DHT22;2617;51.006;12.436;2023-05-29T15:45:29;22.40;60.50
5196;DHT22;2617;51.006;12.436;2023-05-29T15:50:32;22.40;60.50
5196;DHT22;2617;51.006;12.436;2023-05-29T15:55:36;22.10;65.40
5196;DHT22;2617;51.006;12.436;2023-05-29T16:00:38;22.10;65.40
5196;DHT22;2617;51.006;12.436;2023-05-29T16:05:40;21.90;65.70
5196;DHT22;2617;51.006;12.436;2023-05-29T16:10:43;21.80;62.50
5196;DHT22;2617;51.006;12.436;2023-05-29T16:15:45;21.50;63.30
5196;DHT22;2617;51.006;12.436;2023-05-29T16:20:48;21.50;63.50
5196;DHT22;2617;51.006;12.436;2023-05-29T16:25:52;21.70;66.40
5196;DHT22;2617;51.006;12.436;2023-05-29T16:30:54;22.00;67.00
5196;DHT22;2617;51.006;12.436;2023-05-29T16:35:56;22.00;67.00
5196;DHT22;2617;51.006;12.436;2023-05-29T16:40:59;22.00;65.90
5196;DHT22;2617;51.006;12.436;2023-05-29T16:46:01;21.70;67.90
5196;DHT22;2617;51.006;12.436;2023-05-29T16:51:05;21.60;68.50
5196;DHT22;2617;51.006;12.436;2023-05-29T16:56:08;21.00;70.30
5196;DHT22;2617;51.006;12.436;2023-05-29T17:01:11;20.50;72.10
5196;DHT22;2617;51.006;12.436;2023-05-29T17:06:14;20.50;72.10
5196;DHT22;2617;51.006;12.436;2023-05-29T17:11:16;20.30;72.50
5196;DHT22;2617;51.006;12.436;2023-05-29T17:16:19;20.20;73.90
5196;DHT22;2617;51.006;12.436;2023-05-29T17:21:21;20.20;74.70
5196;DHT22;2617;51.006;12.436;2023-05-29T17:26:23;20.30;75.10
5196;DHT22;2617;51.006;12.436;2023-05-29T17:31:26;20.20;76.20
5196;DHT22;2617;51.006;12.436;2023-05-29T17:36:28;20.30;77.00
5196;DHT22;2617;51.006;12.436;2023-05-29T17:41:31;20.10;77.70
5196;DHT22;2617;51.006;12.436;2023-05-29T17:46:33;20.00;78.30
5196;DHT22;2617;51.006;12.436;2023-05-29T17:51:40;20.10;75.80
5196;DHT22;2617;51.006;12.436;2023-05-29T17:56:42;20.10;75.80
5196;DHT22;2617;51.006;12.436;2023-05-29T18:01:49;20.20;75.00
5196;DHT22;2617;51.006;12.436;2023-05-29T18:06:51;20.00;74.40
5196;DHT22;2617;51.006;12.436;2023-05-29T18:11:53;19.90;75.20
5196;DHT22;2617;51.006;12.436;2023-05-29T18:16:56;19.70;76.00
5196;DHT22;2617;51.006;12.436;2023-05-29T18:21:58;19.40;76.60
5196;DHT22;2617;51.006;12.436;2023-05-29T18:27:01;19.20;77.20
5196;DHT22;2617;51.006;12.436;2023-05-29T18:32:04;18.80;77.30
5196;DHT22;2617;51.006;12.436;2023-05-29T18:37:07;18.80;77.30
5196;DHT22;2617;51.006;12.436;2023-05-29T18:42:09;18.70;78.00
5196;DHT22;2617;51.006;12.436;2023-05-29T18:47:13;18.30;78.80
5196;DHT22;2617;51.006;12.436;2023-05-29T18:52:16;18.30;78.80
5196;DHT22;2617;51.006;12.436;2023-05-29T18:57:19;18.10;80.00
5196;DHT22;2617;51.006;12.436;2023-05-29T19:02:21;17.90;80.10
5196;DHT22;2617;51.006;12.436;2023-05-29T19:07:23;17.70;80.50
5196;DHT22;2617;51.006;12.436;2023-05-29T19:12:26;17.60;80.80
5196;DHT22;2617;51.006;12.436;2023-05-29T19:17:28;17.40;81.50
5196;DHT22;2617;51.006;12.436;2023-05-29T19:22:31;17.20;82.10
5196;DHT22;2617;51.006;12.436;2023-05-29T19:27:34;17.00;83.00
5196;DHT22;2617;51.006;12.436;2023-05-29T19:32:38;16.90;83.10
5196;DHT22;2617;51.006;12.436;2023-05-29T19:37:41;16.80;83.90
5196;DHT22;2617;51.006;12.436;2023-05-29T19:42:44;16.70;83.70
5196;DHT22;2617;51.006;12.436;2023-05-29T19:47:46;16.60;84.40
5196;DHT22;2617;51.006;12.436;2023-05-29T19:52:49;16.40;86.00
5196;DHT22;2617;51.006;12.436;2023-05-29T19:57:52;16.30;85.90
5196;DHT22;2617;51.006;12.436;2023-05-29T20:02:54;16.20;86.60
5196;DHT22;2617;51.006;12.436;2023-05-29T20:07:57;16.00;88.90
5196;DHT22;2617;51.006;12.436;2023-05-29T20:13:00;16.00;88.90
5196;DHT22;2617;51.006;12.436;2023-05-29T20:18:03;15.70;90.50
5196;DHT22;2617;51.006;12.436;2023-05-29T20:23:06;15.70;90.50
5196;DHT22;2617;51.006;12.436;2023-05-29T20:28:09;15.50;92.50
5196;DHT22;2617;51.006;12.436;2023-05-29T20:33:11;15.50;92.40
5196;DHT22;2617;51.006;12.436;2023-05-29T20:38:14;15.30;93.30
5196;DHT22;2617;51.006;12.436;2023-05-29T20:43:16;15.20;93.80
5196;DHT22;2617;51.006;12.436;2023-05-29T20:48:19;15.00;94.60
5196;DHT22;2617;51.006;12.436;2023-05-29T20:53:23;14.90;95.20
5196;DHT22;2617;51.006;12.436;2023-05-29T20:58:25;14.90;95.20
5196;DHT22;2617;51.006;12.436;2023-05-29T21:03:27;14.80;96.20
5196;DHT22;2617;51.006;12.436;2023-05-29T21:08:30;14.60;96.90
5196;DHT22;2617;51.006;12.436;2023-05-29T21:13:32;14.50;97.30
5196;DHT22;2617;51.006;12.436;2023-05-29T21:18:35;14.40;98.10
5196;DHT22;2617;51.006;12.436;2023-05-29T21:23:37;14.30;98.30
5196;DHT22;2617;51.006;12.436;2023-05-29T21:28:41;14.20;98.60
5196;DHT22;2617;51.006;12.436;2023-05-29T21:33:42;14.10;98.80
5196;DHT22;2617;51.006;12.436;2023-05-29T21:38:44;14.10;99.20
5196;DHT22;2617;51.006;12.436;2023-05-29T21:43:47;14.00;99.80
5196;DHT22;2617;51.006;12.436;2023-05-29T21:48:49;13.90;99.90
5196;DHT22;2617;51.006;12.436;2023-05-29T21:53:52;13.80;99.90
5196;DHT22;2617;51.006;12.436;2023-05-29T21:58:54;13.70;99.90
5196;DHT22;2617;51.006;12.436;2023-05-29T22:03:57;13.60;99.90
5196;DHT22;2617;51.006;12.436;2023-05-29T22:08:59;13.50;99.90
5196;DHT22;2617;51.006;12.436;2023-05-29T22:14:03;13.30;99.90
5196;DHT22;2617;51.006;12.436;2023-05-29T22:19:06;13.20;99.90
5196;DHT22;2617;51.006;12.436;2023-05-29T22:24:10;13.20;99.90
5196;DHT22;2617;51.006;12.436;2023-05-29T22:29:12;13.20;99.90
5196;DHT22;2617;51.006;12.436;2023-05-29T22:34:14;13.10;99.90
5196;DHT22;2617;51.006;12.436;2023-05-29T22:39:18;13.10;99.90
5196;DHT22;2617;51.006;12.436;2023-05-29T22:44:20;13.00;99.90
5196;DHT22;2617;51.006;12.436;2023-05-29T22:49:23;12.90;99.90
5196;DHT22;2617;51.006;12.436;2023-05-29T22:54:25;12.80;99.90
5196;DHT22;2617;51.006;12.436;2023-05-29T22:59:27;12.60;99.90
5196;DHT22;2617;51.006;12.436;2023-05-29T23:04:30;12.50;99.90
5196;DHT22;2617;51.006;12.436;2023-05-29T23:09:32;12.50;99.90
5196;DHT22;2617;51.006;12.436;2023-05-29T23:14:35;12.30;99.90
5196;DHT22;2617;51.006;12.436;2023-05-29T23:19:39;12.30;99.90
5196;DHT22;2617;51.006;12.436;2023-05-29T23:24:41;12.30;99.90
5196;DHT22;2617;51.006;12.436;2023-05-29T23:29:44;12.20;99.90
5196;DHT22;2617;51.006;12.436;2023-05-29T23:34:46;12.10;99.90
5196;DHT22;2617;51.006;12.436;2023-05-29T23:39:49;12.00;99.90
5196;DHT22;2617;51.006;12.436;2023-05-29T23:44:52;11.90;99.90
5196;DHT22;2617;51.006;12.436;2023-05-29T23:49:54;11.80;99.90
5196;DHT22;2617;51.006;12.436;2023-05-29T23:54:57;11.80;99.90
